sensor_id;sensor_type;location;lat;lon;timestamp;temperature;humidity
76789;DHT22;65740;52.464;13.446;2023-07-13T00:02:10;27.80;34.40
76789;DHT22;65740;52.464;13.446;2023-07-13T00:04:36;27.70;34.30
76789;DHT22;65740;52.464;13.446;2023-07-13T00:07:02;27.70;34.30
76789;DHT22;65740;52.464;13.446;2023-07-13T00:09:28;27.70;34.30
76789;DHT22;65740;52.464;13.446;2023-07-13T00:11:56;27.70;35.00
76789;DHT22;65740;52.464;13.446;2023-07-13T00:14:23;27.70;34.30
76789;DHT22;65740;52.464;13.446;2023-07-13T00:16:49;27.60;34.30
76789;DHT22;65740;52.464;13.446;2023-07-13T00:19:15;27.60;34.30
76789;DHT22;65740;52.464;13.446;2023-07-13T00:21:41;27.60;34.30
76789;DHT22;65740;52.464;13.446;2023-07-13T00:24:17;27.60;34.30
76789;DHT22;65740;52.464;13.446;2023-07-13T00:26:48;27.60;34.30
76789;DHT22;65740;52.464;13.446;2023-07-13T00:29:14;27.60;34.30
76789;DHT22;65740;52.464;13.446;2023-07-13T00:31:41;27.60;34.30
76789;DHT22;65740;52.464;13.446;2023-07-13T00:34:07;27.60;35.00
76789;DHT22;65740;52.464;13.446;2023-07-13T00:36:33;27.50;34.20
76789;DHT22;65740;52.464;13.446;2023-07-13T00:38:59;27.50;34.20
76789;DHT22;65740;52.464;13.446;2023-07-13T00:41:25;27.50;34.20
76789;DHT22;65740;52.464;13.446;2023-07-13T00:43:51;27.50;34.20
76789;DHT22;65740;52.464;13.446;2023-07-13T00:46:21;27.50;34.20
76789;DHT22;65740;52.464;13.446;2023-07-13T00:48:48;27.50;34.20
76789;DHT22;65740;52.464;13.446;2023-07-13T00:51:21;27.50;34.90
76789;DHT22;65740;52.464;13.446;2023-07-13T00:53:47;27.40;34.10
76789;DHT22;65740;52.464;13.446;2023-07-13T00:56:13;27.40;34.10
76789;DHT22;65740;52.464;13.446;2023-07-13T00:58:39;27.40;34.10
76789;DHT22;65740;52.464;13.446;2023-07-13T01:01:05;27.40;34.20
76789;DHT22;65740;52.464;13.446;2023-07-13T01:03:30;27.40;34.20
76789;DHT22;65740;52.464;13.446;2023-07-13T01:05:56;27.40;34.10
76789;DHT22;65740;52.464;13.446;2023-07-13T01:08:22;27.40;34.10
76789;DHT22;65740;52.464;13.446;2023-07-13T01:10:52;27.40;34.10
76789;DHT22;65740;52.464;13.446;2023-07-13T01:13:18;27.40;34.10
76789;DHT22;65740;52.464;13.446;2023-07-13T01:15:49;27.40;34.10
76789;DHT22;65740;52.464;13.446;2023-07-13T01:18:26;27.40;34.20
76789;DHT22;65740;52.464;13.446;2023-07-13T01:21:03;27.40;34.10
76789;DHT22;65740;52.464;13.446;2023-07-13T01:23:31;27.40;34.10
76789;DHT22;65740;52.464;13.446;2023-07-13T01:25:57;27.40;34.10
76789;DHT22;65740;52.464;13.446;2023-07-13T01:28:25;27.40;34.10
76789;DHT22;65740;52.464;13.446;2023-07-13T01:30:57;27.40;34.10
76789;DHT22;65740;52.464;13.446;2023-07-13T01:33:24;27.30;34.10
76789;DHT22;65740;52.464;13.446;2023-07-13T01:35:50;27.30;34.10
76789;DHT22;65740;52.464;13.446;2023-07-13T01:38:17;27.30;34.10
76789;DHT22;65740;52.464;13.446;2023-07-13T01:40:43;27.30;34.10
76789;DHT22;65740;52.464;13.446;2023-07-13T01:43:09;27.30;34.10
76789;DHT22;65740;52.464;13.446;2023-07-13T01:45:35;27.30;34.10
76789;DHT22;65740;52.464;13.446;2023-07-13T01:48:00;27.30;34.50
76789;DHT22;65740;52.464;13.446;2023-07-13T01:50:26;27.30;34.10
76789;DHT22;65740;52.464;13.446;2023-07-13T01:52:52;27.30;34.10
76789;DHT22;65740;52.464;13.446;2023-07-13T01:55:18;27.30;34.10
76789;DHT22;65740;52.464;13.446;2023-07-13T01:57:44;27.30;34.10
76789;DHT22;65740;52.464;13.446;2023-07-13T02:00:11;27.20;34.00
76789;DHT22;65740;52.464;13.446;2023-07-13T02:02:37;27.20;34.00
76789;DHT22;65740;52.464;13.446;2023-07-13T02:05:02;27.20;34.00
76789;DHT22;65740;52.464;13.446;2023-07-13T02:07:28;27.20;34.00
76789;DHT22;65740;52.464;13.446;2023-07-13T02:09:54;27.20;34.00
76789;DHT22;65740;52.464;13.446;2023-07-13T02:12:19;27.20;34.00
76789;DHT22;65740;52.464;13.446;2023-07-13T02:14:45;27.20;34.00
76789;DHT22;65740;52.464;13.446;2023-07-13T02:17:11;27.10;33.90
76789;DHT22;65740;52.464;13.446;2023-07-13T02:19:36;27.10;34.00
76789;DHT22;65740;52.464;13.446;2023-07-13T02:22:02;27.10;34.00
76789;DHT22;65740;52.464;13.446;2023-07-13T02:24:28;27.10;33.90
76789;DHT22;65740;52.464;13.446;2023-07-13T02:26:54;27.10;33.90
76789;DHT22;65740;52.464;13.446;2023-07-13T02:29:19;27.00;33.90
76789;DHT22;65740;52.464;13.446;2023-07-13T02:31:45;27.00;33.90
76789;DHT22;65740;52.464;13.446;2023-07-13T02:34:10;27.00;33.90
76789;DHT22;65740;52.464;13.446;2023-07-13T02:36:36;27.00;33.90
76789;DHT22;65740;52.464;13.446;2023-07-13T02:39:04;27.00;33.90
76789;DHT22;65740;52.464;13.446;2023-07-13T02:41:30;27.00;33.90
76789;DHT22;65740;52.464;13.446;2023-07-13T02:43:57;27.00;33.90
76789;DHT22;65740;52.464;13.446;2023-07-13T02:46:29;27.00;34.60
76789;DHT22;65740;52.464;13.446;2023-07-13T02:48:54;26.90;33.80
76789;DHT22;65740;52.464;13.446;2023-07-13T02:51:20;26.90;33.80
76789;DHT22;65740;52.464;13.446;2023-07-13T02:53:46;26.90;33.80
76789;DHT22;65740;52.464;13.446;2023-07-13T02:56:12;26.90;33.80
76789;DHT22;65740;52.464;13.446;2023-07-13T02:58:37;26.90;33.80
76789;DHT22;65740;52.464;13.446;2023-07-13T03:01:07;26.90;33.80
76789;DHT22;65740;52.464;13.446;2023-07-13T03:03:33;26.80;33.70
76789;DHT22;65740;52.464;13.446;2023-07-13T03:06:00;26.80;33.70
76789;DHT22;65740;52.464;13.446;2023-07-13T03:08:27;26.80;34.40
76789;DHT22;65740;52.464;13.446;2023-07-13T03:11:04;26.80;33.70
76789;DHT22;65740;52.464;13.446;2023-07-13T03:13:31;26.80;33.70
76789;DHT22;65740;52.464;13.446;2023-07-13T03:15:56;26.80;33.70
76789;DHT22;65740;52.464;13.446;2023-07-13T03:18:22;26.80;33.80
76789;DHT22;65740;52.464;13.446;2023-07-13T03:20:50;26.80;33.70
76789;DHT22;65740;52.464;13.446;2023-07-13T03:23:16;26.70;33.70
76789;DHT22;65740;52.464;13.446;2023-07-13T03:25:42;26.70;34.40
76789;DHT22;65740;52.464;13.446;2023-07-13T03:28:08;26.70;33.70
76789;DHT22;65740;52.464;13.446;2023-07-13T03:30:33;26.70;33.70
76789;DHT22;65740;52.464;13.446;2023-07-13T03:32:59;26.70;33.70
76789;DHT22;65740;52.464;13.446;2023-07-13T03:35:24;26.70;33.70
76789;DHT22;65740;52.464;13.446;2023-07-13T03:37:50;26.70;33.70
76789;DHT22;65740;52.464;13.446;2023-07-13T03:40:16;26.70;33.70
76789;DHT22;65740;52.464;13.446;2023-07-13T03:42:42;26.60;33.80
76789;DHT22;65740;52.464;13.446;2023-07-13T03:45:08;26.60;33.70
76789;DHT22;65740;52.464;13.446;2023-07-13T03:47:34;26.60;33.70
76789;DHT22;65740;52.464;13.446;2023-07-13T03:49:59;26.60;33.90
76789;DHT22;65740;52.464;13.446;2023-07-13T03:52:25;26.60;34.00
76789;DHT22;65740;52.464;13.446;2023-07-13T03:54:50;26.60;33.90
76789;DHT22;65740;52.464;13.446;2023-07-13T03:57:16;26.60;33.90
76789;DHT22;65740;52.464;13.446;2023-07-13T03:59:42;26.50;33.90
76789;DHT22;65740;52.464;13.446;2023-07-13T04:02:07;26.50;33.90
76789;DHT22;65740;52.464;13.446;2023-07-13T04:04:33;26.50;34.10
76789;DHT22;65740;52.464;13.446;2023-07-13T04:06:59;26.50;33.90
76789;DHT22;65740;52.464;13.446;2023-07-13T04:09:25;26.50;34.10
76789;DHT22;65740;52.464;13.446;2023-07-13T04:11:50;26.50;33.90
76789;DHT22;65740;52.464;13.446;2023-07-13T04:14:16;26.50;34.30
76789;DHT22;65740;52.464;13.446;2023-07-13T04:16:42;26.50;34.00
76789;DHT22;65740;52.464;13.446;2023-07-13T04:19:09;26.40;33.90
76789;DHT22;65740;52.464;13.446;2023-07-13T04:21:36;26.40;34.10
76789;DHT22;65740;52.464;13.446;2023-07-13T04:24:02;26.40;34.70
76789;DHT22;65740;52.464;13.446;2023-07-13T04:26:28;26.40;34.10
76789;DHT22;65740;52.464;13.446;2023-07-13T04:28:55;26.40;33.90
76789;DHT22;65740;52.464;13.446;2023-07-13T04:31:21;26.40;34.00
76789;DHT22;65740;52.464;13.446;2023-07-13T04:33:47;26.40;34.10
76789;DHT22;65740;52.464;13.446;2023-07-13T04:36:14;26.40;34.20
76789;DHT22;65740;52.464;13.446;2023-07-13T04:38:40;26.40;34.20
76789;DHT22;65740;52.464;13.446;2023-07-13T04:41:07;26.40;34.20
76789;DHT22;65740;52.464;13.446;2023-07-13T04:43:33;26.40;34.20
76789;DHT22;65740;52.464;13.446;2023-07-13T04:46:07;26.40;34.30
76789;DHT22;65740;52.464;13.446;2023-07-13T04:48:33;26.30;34.20
76789;DHT22;65740;52.464;13.446;2023-07-13T04:51:00;26.30;34.10
76789;DHT22;65740;52.464;13.446;2023-07-13T04:53:26;26.30;35.20
76789;DHT22;65740;52.464;13.446;2023-07-13T04:55:52;26.30;35.10
76789;DHT22;65740;52.464;13.446;2023-07-13T04:58:18;26.30;34.00
76789;DHT22;65740;52.464;13.446;2023-07-13T05:00:43;26.30;34.40
76789;DHT22;65740;52.464;13.446;2023-07-13T05:03:09;26.30;34.40
76789;DHT22;65740;52.464;13.446;2023-07-13T05:05:35;26.30;34.50
76789;DHT22;65740;52.464;13.446;2023-07-13T05:08:00;26.30;34.40
76789;DHT22;65740;52.464;13.446;2023-07-13T05:10:26;26.30;34.50
76789;DHT22;65740;52.464;13.446;2023-07-13T05:12:52;26.30;34.50
76789;DHT22;65740;52.464;13.446;2023-07-13T05:15:20;26.30;34.50
76789;DHT22;65740;52.464;13.446;2023-07-13T05:17:47;26.30;34.60
76789;DHT22;65740;52.464;13.446;2023-07-13T05:20:13;26.30;34.40
76789;DHT22;65740;52.464;13.446;2023-07-13T05:22:38;26.30;34.70
76789;DHT22;65740;52.464;13.446;2023-07-13T05:25:05;26.30;34.80
76789;DHT22;65740;52.464;13.446;2023-07-13T05:27:31;26.30;34.80
76789;DHT22;65740;52.464;13.446;2023-07-13T05:29:57;26.20;35.00
76789;DHT22;65740;52.464;13.446;2023-07-13T05:32:23;26.30;34.80
76789;DHT22;65740;52.464;13.446;2023-07-13T05:34:48;26.30;34.90
76789;DHT22;65740;52.464;13.446;2023-07-13T05:37:14;26.20;35.20
76789;DHT22;65740;52.464;13.446;2023-07-13T05:39:39;26.20;35.00
76789;DHT22;65740;52.464;13.446;2023-07-13T05:42:06;26.20;35.00
76789;DHT22;65740;52.464;13.446;2023-07-13T05:44:31;26.20;35.00
76789;DHT22;65740;52.464;13.446;2023-07-13T05:46:57;26.20;35.10
76789;DHT22;65740;52.464;13.446;2023-07-13T05:49:23;26.20;35.00
76789;DHT22;65740;52.464;13.446;2023-07-13T05:51:49;26.20;35.00
76789;DHT22;65740;52.464;13.446;2023-07-13T05:54:14;26.20;35.20
76789;DHT22;65740;52.464;13.446;2023-07-13T05:56:40;26.20;35.20
76789;DHT22;65740;52.464;13.446;2023-07-13T05:59:05;26.20;35.20
76789;DHT22;65740;52.464;13.446;2023-07-13T06:01:31;26.20;35.30
76789;DHT22;65740;52.464;13.446;2023-07-13T06:03:57;26.20;35.30
76789;DHT22;65740;52.464;13.446;2023-07-13T06:06:22;26.20;35.20
76789;DHT22;65740;52.464;13.446;2023-07-13T06:08:48;26.30;35.30
76789;DHT22;65740;52.464;13.446;2023-07-13T06:11:17;26.30;35.20
76789;DHT22;65740;52.464;13.446;2023-07-13T06:13:43;26.30;36.20
76789;DHT22;65740;52.464;13.446;2023-07-13T06:16:09;26.30;36.20
76789;DHT22;65740;52.464;13.446;2023-07-13T06:18:36;26.30;36.20
76789;DHT22;65740;52.464;13.446;2023-07-13T06:21:07;26.30;35.90
76789;DHT22;65740;52.464;13.446;2023-07-13T06:23:32;26.20;35.90
76789;DHT22;65740;52.464;13.446;2023-07-13T06:25:58;26.20;36.50
76789;DHT22;65740;52.464;13.446;2023-07-13T06:28:24;26.20;35.70
76789;DHT22;65740;52.464;13.446;2023-07-13T06:30:49;26.20;36.30
76789;DHT22;65740;52.464;13.446;2023-07-13T06:33:15;26.20;35.60
76789;DHT22;65740;52.464;13.446;2023-07-13T06:35:42;26.20;35.80
76789;DHT22;65740;52.464;13.446;2023-07-13T06:38:07;26.30;36.40
76789;DHT22;65740;52.464;13.446;2023-07-13T06:40:33;26.20;36.20
76789;DHT22;65740;52.464;13.446;2023-07-13T06:42:59;26.30;36.20
76789;DHT22;65740;52.464;13.446;2023-07-13T06:45:24;26.30;35.90
76789;DHT22;65740;52.464;13.446;2023-07-13T06:47:50;26.30;36.40
76789;DHT22;65740;52.464;13.446;2023-07-13T06:50:15;26.30;36.00
76789;DHT22;65740;52.464;13.446;2023-07-13T06:52:41;26.30;36.50
76789;DHT22;65740;52.464;13.446;2023-07-13T06:55:07;26.30;36.20
76789;DHT22;65740;52.464;13.446;2023-07-13T06:57:33;26.30;36.10
76789;DHT22;65740;52.464;13.446;2023-07-13T06:59:59;26.30;36.60
76789;DHT22;65740;52.464;13.446;2023-07-13T07:02:24;26.30;36.20
76789;DHT22;65740;52.464;13.446;2023-07-13T07:04:50;26.30;36.40
76789;DHT22;65740;52.464;13.446;2023-07-13T07:07:16;26.30;36.20
76789;DHT22;65740;52.464;13.446;2023-07-13T07:09:41;26.30;36.40
76789;DHT22;65740;52.464;13.446;2023-07-13T07:12:07;26.30;36.20
76789;DHT22;65740;52.464;13.446;2023-07-13T07:14:33;26.30;36.20
76789;DHT22;65740;52.464;13.446;2023-07-13T07:16:59;26.40;36.50
76789;DHT22;65740;52.464;13.446;2023-07-13T07:19:25;26.40;36.70
76789;DHT22;65740;52.464;13.446;2023-07-13T07:21:51;26.40;36.50
76789;DHT22;65740;52.464;13.446;2023-07-13T07:24:17;26.40;36.50
76789;DHT22;65740;52.464;13.446;2023-07-13T07:26:42;26.40;36.70
76789;DHT22;65740;52.464;13.446;2023-07-13T07:29:08;26.40;36.50
76789;DHT22;65740;52.464;13.446;2023-07-13T07:31:33;26.40;36.60
76789;DHT22;65740;52.464;13.446;2023-07-13T07:33:59;26.50;36.60
76789;DHT22;65740;52.464;13.446;2023-07-13T07:36:25;26.50;36.80
76789;DHT22;65740;52.464;13.446;2023-07-13T07:38:51;26.50;37.30
76789;DHT22;65740;52.464;13.446;2023-07-13T07:41:16;26.50;36.70
76789;DHT22;65740;52.464;13.446;2023-07-13T07:43:42;26.40;37.10
76789;DHT22;65740;52.464;13.446;2023-07-13T07:46:07;26.40;37.40
76789;DHT22;65740;52.464;13.446;2023-07-13T07:48:33;26.30;37.50
76789;DHT22;65740;52.464;13.446;2023-07-13T07:50:59;26.30;37.70
76789;DHT22;65740;52.464;13.446;2023-07-13T07:53:24;26.30;37.50
76789;DHT22;65740;52.464;13.446;2023-07-13T07:55:50;26.40;37.80
76789;DHT22;65740;52.464;13.446;2023-07-13T07:58:16;26.30;37.90
76789;DHT22;65740;52.464;13.446;2023-07-13T08:00:42;26.30;37.90
76789;DHT22;65740;52.464;13.446;2023-07-13T08:03:08;26.30;38.20
76789;DHT22;65740;52.464;13.446;2023-07-13T08:05:36;26.30;38.10
76789;DHT22;65740;52.464;13.446;2023-07-13T08:08:02;26.30;38.10
76789;DHT22;65740;52.464;13.446;2023-07-13T08:10:28;26.40;38.10
76789;DHT22;65740;52.464;13.446;2023-07-13T08:12:53;26.30;38.20
76789;DHT22;65740;52.464;13.446;2023-07-13T08:15:19;26.40;38.30
76789;DHT22;65740;52.464;13.446;2023-07-13T08:17:47;26.40;38.30
76789;DHT22;65740;52.464;13.446;2023-07-13T08:20:13;26.40;38.80
76789;DHT22;65740;52.464;13.446;2023-07-13T08:22:39;26.40;38.30
76789;DHT22;65740;52.464;13.446;2023-07-13T08:25:05;26.40;38.20
76789;DHT22;65740;52.464;13.446;2023-07-13T08:27:31;26.40;38.30
76789;DHT22;65740;52.464;13.446;2023-07-13T08:29:57;26.40;38.20
76789;DHT22;65740;52.464;13.446;2023-07-13T08:32:23;26.40;38.20
76789;DHT22;65740;52.464;13.446;2023-07-13T08:34:49;26.40;38.40
76789;DHT22;65740;52.464;13.446;2023-07-13T08:37:15;26.40;38.20
76789;DHT22;65740;52.464;13.446;2023-07-13T08:39:40;26.40;37.90
76789;DHT22;65740;52.464;13.446;2023-07-13T08:42:14;26.40;37.90
76789;DHT22;65740;52.464;13.446;2023-07-13T08:45:04;26.40;37.90
76789;DHT22;65740;52.464;13.446;2023-07-13T08:47:35;26.40;37.80
76789;DHT22;65740;52.464;13.446;2023-07-13T08:50:03;26.50;37.80
76789;DHT22;65740;52.464;13.446;2023-07-13T08:52:35;26.40;37.80
76789;DHT22;65740;52.464;13.446;2023-07-13T08:55:20;26.50;37.50
76789;DHT22;65740;52.464;13.446;2023-07-13T08:57:59;26.50;37.60
76789;DHT22;65740;52.464;13.446;2023-07-13T09:00:37;26.50;37.60
76789;DHT22;65740;52.464;13.446;2023-07-13T09:03:16;26.50;37.40
76789;DHT22;65740;52.464;13.446;2023-07-13T09:05:54;26.60;37.50
76789;DHT22;65740;52.464;13.446;2023-07-13T09:14:01;26.60;38.10
76789;DHT22;65740;52.464;13.446;2023-07-13T09:16:28;26.60;38.40
76789;DHT22;65740;52.464;13.446;2023-07-13T09:18:58;26.60;38.50
76789;DHT22;65740;52.464;13.446;2023-07-13T09:21:34;26.60;37.30
76789;DHT22;65740;52.464;13.446;2023-07-13T09:27:44;26.70;37.10
76789;DHT22;65740;52.464;13.446;2023-07-13T09:32:43;26.60;36.20
76789;DHT22;65740;52.464;13.446;2023-07-13T09:35:16;26.70;36.20
76789;DHT22;65740;52.464;13.446;2023-07-13T09:37:44;26.70;35.80
76789;DHT22;65740;52.464;13.446;2023-07-13T09:43:10;26.70;35.00
76789;DHT22;65740;52.464;13.446;2023-07-13T09:45:38;26.70;34.90
76789;DHT22;65740;52.464;13.446;2023-07-13T09:48:12;26.70;34.30
76789;DHT22;65740;52.464;13.446;2023-07-13T09:50:39;26.70;34.40
76789;DHT22;65740;52.464;13.446;2023-07-13T09:53:15;26.80;34.60
76789;DHT22;65740;52.464;13.446;2023-07-13T09:55:42;26.80;34.70
76789;DHT22;65740;52.464;13.446;2023-07-13T09:58:24;26.80;34.30
76789;DHT22;65740;52.464;13.446;2023-07-13T10:01:01;26.90;35.20
76789;DHT22;65740;52.464;13.446;2023-07-13T10:03:32;26.90;34.50
76789;DHT22;65740;52.464;13.446;2023-07-13T10:06:17;26.90;34.60
76789;DHT22;65740;52.464;13.446;2023-07-13T10:08:48;26.90;34.80
76789;DHT22;65740;52.464;13.446;2023-07-13T10:11:29;27.00;34.70
76789;DHT22;65740;52.464;13.446;2023-07-13T10:14:00;27.00;34.20
76789;DHT22;65740;52.464;13.446;2023-07-13T10:16:28;27.00;34.80
76789;DHT22;65740;52.464;13.446;2023-07-13T10:19:00;27.00;34.60
76789;DHT22;65740;52.464;13.446;2023-07-13T10:21:43;27.00;34.80
76789;DHT22;65740;52.464;13.446;2023-07-13T10:24:33;27.10;34.70
76789;DHT22;65740;52.464;13.446;2023-07-13T10:27:10;27.10;34.40
76789;DHT22;65740;52.464;13.446;2023-07-13T10:29:42;27.10;34.70
76789;DHT22;65740;52.464;13.446;2023-07-13T10:32:10;27.10;34.60
76789;DHT22;65740;52.464;13.446;2023-07-13T10:34:37;27.20;34.00
76789;DHT22;65740;52.464;13.446;2023-07-13T10:37:05;27.20;34.00
76789;DHT22;65740;52.464;13.446;2023-07-13T10:39:31;27.20;34.00
76789;DHT22;65740;52.464;13.446;2023-07-13T10:42:02;27.30;34.10
76789;DHT22;65740;52.464;13.446;2023-07-13T10:44:31;27.30;34.10
76789;DHT22;65740;52.464;13.446;2023-07-13T10:47:04;27.30;34.10
76789;DHT22;65740;52.464;13.446;2023-07-13T10:49:32;27.30;34.10
76789;DHT22;65740;52.464;13.446;2023-07-13T10:51:58;27.30;34.80
76789;DHT22;65740;52.464;13.446;2023-07-13T10:57:22;27.20;34.00
76789;DHT22;65740;52.464;13.446;2023-07-13T11:00:08;27.30;34.10
76789;DHT22;65740;52.464;13.446;2023-07-13T11:02:34;27.10;34.00
76789;DHT22;65740;52.464;13.446;2023-07-13T11:07:56;27.10;35.00
76789;DHT22;65740;52.464;13.446;2023-07-13T11:16:13;26.90;34.80
76789;DHT22;65740;52.464;13.446;2023-07-13T11:18:38;27.00;35.10
76789;DHT22;65740;52.464;13.446;2023-07-13T11:21:34;27.00;35.30
76789;DHT22;65740;52.464;13.446;2023-07-13T11:24:03;27.10;35.40
76789;DHT22;65740;52.464;13.446;2023-07-13T11:31:53;27.10;33.90
76789;DHT22;65740;52.464;13.446;2023-07-13T11:34:38;27.10;33.90
76789;DHT22;65740;52.464;13.446;2023-07-13T11:37:11;27.10;33.90
76789;DHT22;65740;52.464;13.446;2023-07-13T11:39:42;27.20;34.00
76789;DHT22;65740;52.464;13.446;2023-07-13T11:42:13;27.20;33.70
76789;DHT22;65740;52.464;13.446;2023-07-13T11:44:46;27.20;33.70
76789;DHT22;65740;52.464;13.446;2023-07-13T11:47:17;27.30;33.30
76789;DHT22;65740;52.464;13.446;2023-07-13T11:49:49;27.30;34.10
76789;DHT22;65740;52.464;13.446;2023-07-13T11:52:32;27.30;34.10
76789;DHT22;65740;52.464;13.446;2023-07-13T11:55:01;27.30;33.70
76789;DHT22;65740;52.464;13.446;2023-07-13T11:57:33;27.40;34.10
76789;DHT22;65740;52.464;13.446;2023-07-13T12:00:02;27.40;34.10
76789;DHT22;65740;52.464;13.446;2023-07-13T12:02:33;27.40;34.20
76789;DHT22;65740;52.464;13.446;2023-07-13T12:05:00;27.40;34.10
76789;DHT22;65740;52.464;13.446;2023-07-13T12:07:30;27.50;34.20
76789;DHT22;65740;52.464;13.446;2023-07-13T12:12:40;27.60;33.40
76789;DHT22;65740;52.464;13.446;2023-07-13T12:15:12;27.50;34.20
76789;DHT22;65740;52.464;13.446;2023-07-13T12:17:38;27.50;33.40
76789;DHT22;65740;52.464;13.446;2023-07-13T12:20:21;27.50;33.60
76789;DHT22;65740;52.464;13.446;2023-07-13T12:22:50;27.60;33.10
76789;DHT22;65740;52.464;13.446;2023-07-13T12:25:16;27.60;32.90
76789;DHT22;65740;52.464;13.446;2023-07-13T12:27:47;27.70;33.20
76789;DHT22;65740;52.464;13.446;2023-07-13T12:30:32;27.70;33.10
76789;DHT22;65740;52.464;13.446;2023-07-13T12:33:11;27.70;32.90
76789;DHT22;65740;52.464;13.446;2023-07-13T12:35:49;27.60;33.00
76789;DHT22;65740;52.464;13.446;2023-07-13T12:38:18;27.70;32.50
76789;DHT22;65740;52.464;13.446;2023-07-13T12:40:49;27.60;32.60
76789;DHT22;65740;52.464;13.446;2023-07-13T12:43:16;27.70;32.50
76789;DHT22;65740;52.464;13.446;2023-07-13T12:46:20;27.60;32.90
76789;DHT22;65740;52.464;13.446;2023-07-13T12:48:53;27.60;33.10
76789;DHT22;65740;52.464;13.446;2023-07-13T12:51:22;27.70;32.90
76789;DHT22;65740;52.464;13.446;2023-07-13T12:54:05;27.70;33.30
76789;DHT22;65740;52.464;13.446;2023-07-13T12:56:32;27.60;33.00
76789;DHT22;65740;52.464;13.446;2023-07-13T12:59:02;27.60;33.20
76789;DHT22;65740;52.464;13.446;2023-07-13T13:01:31;27.70;33.80
76789;DHT22;65740;52.464;13.446;2023-07-13T13:04:01;27.80;34.40
76789;DHT22;65740;52.464;13.446;2023-07-13T13:06:32;27.80;34.00
76789;DHT22;65740;52.464;13.446;2023-07-13T13:08:59;27.80;33.80
76789;DHT22;65740;52.464;13.446;2023-07-13T13:11:26;27.70;33.90
76789;DHT22;65740;52.464;13.446;2023-07-13T13:13:53;27.80;33.70
76789;DHT22;65740;52.464;13.446;2023-07-13T13:16:21;27.70;34.20
76789;DHT22;65740;52.464;13.446;2023-07-13T13:18:52;27.80;34.20
76789;DHT22;65740;52.464;13.446;2023-07-13T13:21:18;27.80;33.90
76789;DHT22;65740;52.464;13.446;2023-07-13T13:23:44;27.80;33.90
76789;DHT22;65740;52.464;13.446;2023-07-13T13:26:12;27.90;33.50
76789;DHT22;65740;52.464;13.446;2023-07-13T13:28:38;27.90;33.40
76789;DHT22;65740;52.464;13.446;2023-07-13T13:31:04;27.90;33.40
76789;DHT22;65740;52.464;13.446;2023-07-13T13:33:30;27.80;33.60
76789;DHT22;65740;52.464;13.446;2023-07-13T13:35:56;27.90;33.80
76789;DHT22;65740;52.464;13.446;2023-07-13T13:38:25;27.90;33.40
76789;DHT22;65740;52.464;13.446;2023-07-13T13:40:51;28.00;33.30
76789;DHT22;65740;52.464;13.446;2023-07-13T13:43:22;27.90;33.30
76789;DHT22;65740;52.464;13.446;2023-07-13T13:45:52;27.90;33.20
76789;DHT22;65740;52.464;13.446;2023-07-13T13:48:21;28.00;33.10
76789;DHT22;65740;52.464;13.446;2023-07-13T13:50:56;28.00;32.90
76789;DHT22;65740;52.464;13.446;2023-07-13T13:53:22;28.00;33.10
76789;DHT22;65740;52.464;13.446;2023-07-13T13:55:49;28.00;33.10
76789;DHT22;65740;52.464;13.446;2023-07-13T13:58:15;28.10;32.90
76789;DHT22;65740;52.464;13.446;2023-07-13T14:00:41;28.10;32.30
76789;DHT22;65740;52.464;13.446;2023-07-13T14:03:17;28.00;32.60
76789;DHT22;65740;52.464;13.446;2023-07-13T14:05:43;27.90;32.60
76789;DHT22;65740;52.464;13.446;2023-07-13T14:08:16;28.00;32.50
76789;DHT22;65740;52.464;13.446;2023-07-13T14:10:44;27.90;32.80
76789;DHT22;65740;52.464;13.446;2023-07-13T14:13:19;28.00;32.50
76789;DHT22;65740;52.464;13.446;2023-07-13T14:15:46;28.00;32.40
76789;DHT22;65740;52.464;13.446;2023-07-13T14:18:13;27.90;32.50
76789;DHT22;65740;52.464;13.446;2023-07-13T14:20:44;27.90;32.70
76789;DHT22;65740;52.464;13.446;2023-07-13T14:23:12;27.90;32.90
76789;DHT22;65740;52.464;13.446;2023-07-13T14:25:37;28.00;32.70
76789;DHT22;65740;52.464;13.446;2023-07-13T14:28:25;28.10;32.40
76789;DHT22;65740;52.464;13.446;2023-07-13T14:30:52;28.10;32.30
76789;DHT22;65740;52.464;13.446;2023-07-13T14:33:18;28.10;32.00
76789;DHT22;65740;52.464;13.446;2023-07-13T14:35:44;28.10;31.80
76789;DHT22;65740;52.464;13.446;2023-07-13T14:38:16;28.10;31.40
76789;DHT22;65740;52.464;13.446;2023-07-13T14:40:42;28.10;31.50
76789;DHT22;65740;52.464;13.446;2023-07-13T14:43:11;28.20;31.20
76789;DHT22;65740;52.464;13.446;2023-07-13T14:45:41;28.10;31.30
76789;DHT22;65740;52.464;13.446;2023-07-13T14:48:20;28.10;31.30
76789;DHT22;65740;52.464;13.446;2023-07-13T14:50:45;28.10;31.20
76789;DHT22;65740;52.464;13.446;2023-07-13T14:53:13;28.20;31.10
76789;DHT22;65740;52.464;13.446;2023-07-13T14:55:39;28.10;31.30
76789;DHT22;65740;52.464;13.446;2023-07-13T14:58:05;28.10;31.40
76789;DHT22;65740;52.464;13.446;2023-07-13T15:00:31;28.10;31.20
76789;DHT22;65740;52.464;13.446;2023-07-13T15:02:59;28.10;31.10
76789;DHT22;65740;52.464;13.446;2023-07-13T15:05:28;28.10;30.90
76789;DHT22;65740;52.464;13.446;2023-07-13T15:08:00;28.10;30.80
76789;DHT22;65740;52.464;13.446;2023-07-13T15:10:29;28.10;30.90
76789;DHT22;65740;52.464;13.446;2023-07-13T15:13:15;28.20;31.00
76789;DHT22;65740;52.464;13.446;2023-07-13T15:15:44;28.20;30.80
76789;DHT22;65740;52.464;13.446;2023-07-13T15:18:12;28.20;30.50
76789;DHT22;65740;52.464;13.446;2023-07-13T15:20:38;28.20;30.70
76789;DHT22;65740;52.464;13.446;2023-07-13T15:23:04;28.00;30.90
76789;DHT22;65740;52.464;13.446;2023-07-13T15:25:32;28.00;31.20
76789;DHT22;65740;52.464;13.446;2023-07-13T15:27:59;28.00;31.90
76789;DHT22;65740;52.464;13.446;2023-07-13T15:30:28;28.10;32.30
76789;DHT22;65740;52.464;13.446;2023-07-13T15:32:55;28.20;32.50
76789;DHT22;65740;52.464;13.446;2023-07-13T15:35:26;28.20;32.70
76789;DHT22;65740;52.464;13.446;2023-07-13T15:37:51;28.20;32.80
76789;DHT22;65740;52.464;13.446;2023-07-13T15:40:17;28.30;32.90
76789;DHT22;65740;52.464;13.446;2023-07-13T15:42:45;28.20;32.40
76789;DHT22;65740;52.464;13.446;2023-07-13T15:45:21;28.20;32.10
76789;DHT22;65740;52.464;13.446;2023-07-13T15:47:49;28.30;32.00
76789;DHT22;65740;52.464;13.446;2023-07-13T15:50:20;28.20;32.10
76789;DHT22;65740;52.464;13.446;2023-07-13T15:52:52;28.20;31.90
76789;DHT22;65740;52.464;13.446;2023-07-13T15:55:18;28.10;31.60
76789;DHT22;65740;52.464;13.446;2023-07-13T15:57:49;28.20;31.30